sensor_id;sensor_type;location;lat;lon;timestamp;pressure;altitude;pressure_sealevel;temperature;humidity
8366;BME280;4220;42.502;24.188;2023-07-29T00:01:30;95148.59;;;18.52;58.76
8366;BME280;4220;42.502;24.188;2023-07-29T00:03:57;95141.84;;;18.24;59.81
8366;BME280;4220;42.502;24.188;2023-07-29T00:06:24;95144.47;;;17.99;60.83
8366;BME280;4220;42.502;24.188;2023-07-29T00:08:51;95153.63;;;17.98;60.78
8366;BME280;4220;42.502;24.188;2023-07-29T00:11:19;95146.88;;;17.86;61.00
8366;BME280;4220;42.502;24.188;2023-07-29T00:13:46;95154.88;;;17.71;61.73
8366;BME280;4220;42.502;24.188;2023-07-29T00:16:15;95148.25;;;17.93;60.94
8366;BME280;4220;42.502;24.188;2023-07-29T00:18:42;95134.50;;;17.80;61.16
8366;BME280;4220;42.502;24.188;2023-07-29T00:21:09;95143.94;;;18.02;60.98
8366;BME280;4220;42.502;24.188;2023-07-29T00:23:36;95141.53;;;17.91;61.68
8366;BME280;4220;42.502;24.188;2023-07-29T00:26:03;95138.88;;;18.06;61.30
8366;BME280;4220;42.502;24.188;2023-07-29T00:28:31;95128.66;;;17.98;61.23
8366;BME280;4220;42.502;24.188;2023-07-29T00:30:58;95107.41;;;17.71;61.30
8366;BME280;4220;42.502;24.188;2023-07-29T00:33:25;95142.59;;;17.95;61.36
8366;BME280;4220;42.502;24.188;2023-07-29T00:35:51;95142.63;;;18.05;60.85
8366;BME280;4220;42.502;24.188;2023-07-29T00:38:18;95147.19;;;18.19;60.13
8366;BME280;4220;42.502;24.188;2023-07-29T00:40:45;95148.03;;;18.30;59.97
8366;BME280;4220;42.502;24.188;2023-07-29T00:43:12;95148.25;;;18.18;59.71
8366;BME280;4220;42.502;24.188;2023-07-29T00:45:41;95139.41;;;18.08;59.52
8366;BME280;4220;42.502;24.188;2023-07-29T00:48:09;95122.19;;;17.84;60.02
8366;BME280;4220;42.502;24.188;2023-07-29T00:50:36;95141.78;;;17.94;60.17
8366;BME280;4220;42.502;24.188;2023-07-29T00:53:03;95144.41;;;17.74;60.78
8366;BME280;4220;42.502;24.188;2023-07-29T00:55:30;95144.13;;;17.60;61.24
8366;BME280;4220;42.502;24.188;2023-07-29T00:57:57;95133.31;;;17.50;61.60
8366;BME280;4220;42.502;24.188;2023-07-29T01:00:25;95142.53;;;17.75;61.28
8366;BME280;4220;42.502;24.188;2023-07-29T01:02:53;95147.09;;;17.74;61.54
8366;BME280;4220;42.502;24.188;2023-07-29T01:05:20;95134.53;;;17.90;61.42
8366;BME280;4220;42.502;24.188;2023-07-29T01:07:52;95101.78;;;17.73;60.97
8366;BME280;4220;42.502;24.188;2023-07-29T01:10:30;95141.25;;;17.92;61.48
8366;BME280;4220;42.502;24.188;2023-07-29T01:13:06;95137.75;;;17.92;61.60
8366;BME280;4220;42.502;24.188;2023-07-29T01:15:38;95129.69;;;17.82;62.01
8366;BME280;4220;42.502;24.188;2023-07-29T01:18:14;95140.13;;;17.73;62.62
8366;BME280;4220;42.502;24.188;2023-07-29T01:20:47;95141.44;;;17.66;62.72
8366;BME280;4220;42.502;24.188;2023-07-29T01:23:15;95136.06;;;17.60;63.18
8366;BME280;4220;42.502;24.188;2023-07-29T01:25:44;95130.47;;;17.77;62.70
8366;BME280;4220;42.502;24.188;2023-07-29T01:28:10;95123.53;;;17.76;62.16
8366;BME280;4220;42.502;24.188;2023-07-29T01:30:39;95129.66;;;17.77;62.54
8366;BME280;4220;42.502;24.188;2023-07-29T01:33:12;95117.84;;;17.62;62.02
8366;BME280;4220;42.502;24.188;2023-07-29T01:35:42;95126.06;;;17.46;62.76
8366;BME280;4220;42.502;24.188;2023-07-29T01:38:14;95125.72;;;17.27;63.27
8366;BME280;4220;42.502;24.188;2023-07-29T01:40:45;95124.50;;;16.98;64.57
8366;BME280;4220;42.502;24.188;2023-07-29T01:43:12;95088.28;;;16.80;64.46
8366;BME280;4220;42.502;24.188;2023-07-29T01:45:39;95132.09;;;17.11;64.14
8366;BME280;4220;42.502;24.188;2023-07-29T01:48:07;95122.25;;;16.75;65.96
8366;BME280;4220;42.502;24.188;2023-07-29T01:50:34;95123.38;;;16.89;65.35
8366;BME280;4220;42.502;24.188;2023-07-29T01:53:01;95128.94;;;16.77;65.95
8366;BME280;4220;42.502;24.188;2023-07-29T01:55:29;95133.22;;;16.78;66.40
8366;BME280;4220;42.502;24.188;2023-07-29T01:57:57;95141.91;;;16.95;65.59
8366;BME280;4220;42.502;24.188;2023-07-29T02:00:24;95139.50;;;16.94;65.62
8366;BME280;4220;42.502;24.188;2023-07-29T02:02:51;95124.28;;;17.05;65.33
8366;BME280;4220;42.502;24.188;2023-07-29T02:05:18;95142.00;;;17.11;65.27
8366;BME280;4220;42.502;24.188;2023-07-29T02:07:45;95141.44;;;17.09;65.48
8366;BME280;4220;42.502;24.188;2023-07-29T02:10:12;95138.53;;;17.15;65.05
8366;BME280;4220;42.502;24.188;2023-07-29T02:12:39;95109.16;;;16.83;65.92
8366;BME280;4220;42.502;24.188;2023-07-29T02:15:08;95135.81;;;17.10;65.67
8366;BME280;4220;42.502;24.188;2023-07-29T02:17:35;95139.13;;;17.22;65.30
8366;BME280;4220;42.502;24.188;2023-07-29T02:20:02;95126.81;;;17.31;65.22
8366;BME280;4220;42.502;24.188;2023-07-29T02:22:30;95134.91;;;17.41;65.47
8366;BME280;4220;42.502;24.188;2023-07-29T02:24:56;95131.13;;;17.42;65.46
8366;BME280;4220;42.502;24.188;2023-07-29T02:27:23;95131.44;;;17.46;65.13
8366;BME280;4220;42.502;24.188;2023-07-29T02:29:52;95125.50;;;17.34;65.03
8366;BME280;4220;42.502;24.188;2023-07-29T02:32:20;95130.81;;;17.24;65.05
8366;BME280;4220;42.502;24.188;2023-07-29T02:34:48;95123.22;;;17.11;64.85
8366;BME280;4220;42.502;24.188;2023-07-29T02:37:15;95139.06;;;17.12;64.59
8366;BME280;4220;42.502;24.188;2023-07-29T02:39:42;95132.03;;;17.01;64.53
8366;BME280;4220;42.502;24.188;2023-07-29T02:42:09;95133.91;;;17.00;65.07
8366;BME280;4220;42.502;24.188;2023-07-29T02:44:36;95135.09;;;17.20;64.72
8366;BME280;4220;42.502;24.188;2023-07-29T02:47:03;95127.03;;;17.20;64.41
8366;BME280;4220;42.502;24.188;2023-07-29T02:49:31;95128.97;;;17.29;63.81
8366;BME280;4220;42.502;24.188;2023-07-29T02:51:58;95137.41;;;17.06;65.03
8366;BME280;4220;42.502;24.188;2023-07-29T02:54:25;95139.72;;;16.87;65.92
8366;BME280;4220;42.502;24.188;2023-07-29T02:56:51;95143.28;;;16.61;66.92
8366;BME280;4220;42.502;24.188;2023-07-29T02:59:18;95146.81;;;16.67;67.54
8366;BME280;4220;42.502;24.188;2023-07-29T03:01:45;95146.44;;;16.90;67.46
8366;BME280;4220;42.502;24.188;2023-07-29T03:04:12;95144.63;;;17.00;67.00
8366;BME280;4220;42.502;24.188;2023-07-29T03:06:40;95123.94;;;16.91;67.03
8366;BME280;4220;42.502;24.188;2023-07-29T03:09:08;95138.78;;;17.09;66.44
8366;BME280;4220;42.502;24.188;2023-07-29T03:11:35;95158.34;;;17.09;67.09
8366;BME280;4220;42.502;24.188;2023-07-29T03:14:01;95167.25;;;17.20;67.51
8366;BME280;4220;42.502;24.188;2023-07-29T03:16:28;95158.44;;;17.24;67.60
8366;BME280;4220;42.502;24.188;2023-07-29T03:18:55;95155.19;;;17.27;67.49
8366;BME280;4220;42.502;24.188;2023-07-29T03:21:23;95161.13;;;17.29;67.28
8366;BME280;4220;42.502;24.188;2023-07-29T03:23:51;95160.22;;;17.09;68.20
8366;BME280;4220;42.502;24.188;2023-07-29T03:26:18;95163.69;;;17.09;68.08
8366;BME280;4220;42.502;24.188;2023-07-29T03:28:45;95161.56;;;17.11;67.59
8366;BME280;4220;42.502;24.188;2023-07-29T03:31:12;95166.38;;;17.09;67.38
8366;BME280;4220;42.502;24.188;2023-07-29T03:33:39;95165.88;;;17.12;67.13
8366;BME280;4220;42.502;24.188;2023-07-29T03:36:05;95162.88;;;17.09;67.25
8366;BME280;4220;42.502;24.188;2023-07-29T03:38:32;95157.13;;;16.85;67.44
8366;BME280;4220;42.502;24.188;2023-07-29T03:41:02;95124.03;;;16.32;68.73
8366;BME280;4220;42.502;24.188;2023-07-29T03:43:28;95151.94;;;16.42;69.24
8366;BME280;4220;42.502;24.188;2023-07-29T03:45:55;95160.63;;;16.54;69.19
8366;BME280;4220;42.502;24.188;2023-07-29T03:48:22;95139.56;;;16.30;69.60
8366;BME280;4220;42.502;24.188;2023-07-29T03:50:49;95154.34;;;16.38;70.34
8366;BME280;4220;42.502;24.188;2023-07-29T03:53:16;95166.16;;;16.42;70.74
8366;BME280;4220;42.502;24.188;2023-07-29T03:55:43;95156.97;;;16.33;71.51
8366;BME280;4220;42.502;24.188;2023-07-29T03:58:12;95161.75;;;16.58;70.78
8366;BME280;4220;42.502;24.188;2023-07-29T04:00:39;95177.47;;;16.86;70.08
8366;BME280;4220;42.502;24.188;2023-07-29T04:03:06;95178.69;;;17.05;69.39
8366;BME280;4220;42.502;24.188;2023-07-29T04:05:32;95177.38;;;17.13;68.61
8366;BME280;4220;42.502;24.188;2023-07-29T04:07:59;95185.16;;;17.14;67.75
8366;BME280;4220;42.502;24.188;2023-07-29T04:10:26;95190.03;;;17.17;67.80
8366;BME280;4220;42.502;24.188;2023-07-29T04:12:53;95190.81;;;17.18;67.87
8366;BME280;4220;42.502;24.188;2023-07-29T04:15:21;95187.34;;;17.17;67.11
8366;BME280;4220;42.502;24.188;2023-07-29T04:17:48;95179.03;;;17.19;67.45
8366;BME280;4220;42.502;24.188;2023-07-29T04:20:15;95177.72;;;17.26;67.09
8366;BME280;4220;42.502;24.188;2023-07-29T04:22:42;95189.84;;;17.39;66.79
8366;BME280;4220;42.502;24.188;2023-07-29T04:25:09;95179.97;;;17.44;66.44
8366;BME280;4220;42.502;24.188;2023-07-29T04:27:35;95179.19;;;17.49;65.78
8366;BME280;4220;42.502;24.188;2023-07-29T04:30:03;95183.47;;;17.50;66.09
8366;BME280;4220;42.502;24.188;2023-07-29T04:32:31;95163.84;;;17.39;65.89
8366;BME280;4220;42.502;24.188;2023-07-29T04:34:58;95187.31;;;17.69;65.24
8366;BME280;4220;42.502;24.188;2023-07-29T04:37:25;95187.91;;;17.81;65.32
8366;BME280;4220;42.502;24.188;2023-07-29T04:39:52;95182.84;;;17.95;64.77
8366;BME280;4220;42.502;24.188;2023-07-29T04:42:18;95186.13;;;18.22;64.53
8366;BME280;4220;42.502;24.188;2023-07-29T04:44:45;95178.09;;;18.37;64.16
8366;BME280;4220;42.502;24.188;2023-07-29T04:47:12;95181.34;;;18.49;63.68
8366;BME280;4220;42.502;24.188;2023-07-29T04:49:41;95179.19;;;18.51;63.72
8366;BME280;4220;42.502;24.188;2023-07-29T04:52:08;95184.56;;;18.66;63.32
8366;BME280;4220;42.502;24.188;2023-07-29T04:54:35;95185.91;;;18.79;62.84
8366;BME280;4220;42.502;24.188;2023-07-29T04:57:02;95182.94;;;18.80;62.08
8366;BME280;4220;42.502;24.188;2023-07-29T04:59:29;95189.38;;;18.94;61.56
8366;BME280;4220;42.502;24.188;2023-07-29T05:01:56;95181.28;;;19.10;61.90
8366;BME280;4220;42.502;24.188;2023-07-29T05:04:23;95181.56;;;19.23;61.65
8366;BME280;4220;42.502;24.188;2023-07-29T05:06:51;95183.94;;;19.40;61.17
8366;BME280;4220;42.502;24.188;2023-07-29T05:09:19;95165.66;;;19.37;60.58
8366;BME280;4220;42.502;24.188;2023-07-29T05:11:46;95146.84;;;19.37;60.15
8366;BME280;4220;42.502;24.188;2023-07-29T05:14:15;95201.84;;;19.80;60.00
8366;BME280;4220;42.502;24.188;2023-07-29T05:16:42;95202.53;;;19.95;60.13
8366;BME280;4220;42.502;24.188;2023-07-29T05:19:09;95202.25;;;20.07;59.88
8366;BME280;4220;42.502;24.188;2023-07-29T05:21:36;95204.06;;;20.16;58.26
8366;BME280;4220;42.502;24.188;2023-07-29T05:24:05;95209.44;;;20.21;57.91
8366;BME280;4220;42.502;24.188;2023-07-29T05:26:32;95201.88;;;20.29;57.75
8366;BME280;4220;42.502;24.188;2023-07-29T05:28:59;95202.56;;;20.44;57.07
8366;BME280;4220;42.502;24.188;2023-07-29T05:31:26;95207.06;;;20.59;56.75
8366;BME280;4220;42.502;24.188;2023-07-29T05:33:53;95213.66;;;20.76;56.33
8366;BME280;4220;42.502;24.188;2023-07-29T05:36:20;95205.44;;;20.92;55.69
8366;BME280;4220;42.502;24.188;2023-07-29T05:38:46;95205.63;;;21.05;55.24
8366;BME280;4220;42.502;24.188;2023-07-29T05:41:15;95207.22;;;21.01;54.19
8366;BME280;4220;42.502;24.188;2023-07-29T05:43:42;95208.34;;;21.00;54.20
8366;BME280;4220;42.502;24.188;2023-07-29T05:46:09;95215.06;;;21.03;53.74
8366;BME280;4220;42.502;24.188;2023-07-29T05:48:36;95221.00;;;21.00;53.54
8366;BME280;4220;42.502;24.188;2023-07-29T05:51:02;95205.69;;;20.95;53.76
8366;BME280;4220;42.502;24.188;2023-07-29T05:53:30;95200.25;;;21.00;53.38
8366;BME280;4220;42.502;24.188;2023-07-29T05:55:57;95207.78;;;21.32;53.14
8366;BME280;4220;42.502;24.188;2023-07-29T05:58:25;95210.50;;;21.56;52.82
8366;BME280;4220;42.502;24.188;2023-07-29T06:00:52;95211.91;;;21.77;51.92
8366;BME280;4220;42.502;24.188;2023-07-29T06:03:19;95207.38;;;21.96;51.67
8366;BME280;4220;42.502;24.188;2023-07-29T06:05:46;95212.13;;;22.23;50.96
8366;BME280;4220;42.502;24.188;2023-07-29T06:08:13;95203.81;;;22.38;50.14
8366;BME280;4220;42.502;24.188;2023-07-29T06:10:40;95212.16;;;22.60;49.68
8366;BME280;4220;42.502;24.188;2023-07-29T06:13:07;95215.81;;;22.69;49.52
8366;BME280;4220;42.502;24.188;2023-07-29T06:15:35;95212.16;;;22.78;49.27
8366;BME280;4220;42.502;24.188;2023-07-29T06:18:02;95203.22;;;22.97;48.17
8366;BME280;4220;42.502;24.188;2023-07-29T06:20:29;95205.03;;;23.15;47.32
8366;BME280;4220;42.502;24.188;2023-07-29T06:22:56;95199.38;;;23.30;46.01
8366;BME280;4220;42.502;24.188;2023-07-29T06:25:23;95201.19;;;23.34;44.14
8366;BME280;4220;42.502;24.188;2023-07-29T06:27:49;95206.66;;;23.48;43.54
8366;BME280;4220;42.502;24.188;2023-07-29T06:30:16;95199.66;;;23.61;43.11
8366;BME280;4220;42.502;24.188;2023-07-29T06:32:45;95201.06;;;23.58;40.56
8366;BME280;4220;42.502;24.188;2023-07-29T06:35:11;95211.06;;;23.71;40.78
8366;BME280;4220;42.502;24.188;2023-07-29T06:37:38;95205.25;;;23.91;40.28
8366;BME280;4220;42.502;24.188;2023-07-29T06:40:06;95201.84;;;23.99;40.15
8366;BME280;4220;42.502;24.188;2023-07-29T06:42:33;95188.63;;;24.12;40.17
8366;BME280;4220;42.502;24.188;2023-07-29T06:45:00;95187.81;;;24.25;40.50
8366;BME280;4220;42.502;24.188;2023-07-29T06:47:26;95189.78;;;24.33;40.46
8366;BME280;4220;42.502;24.188;2023-07-29T06:49:55;95187.31;;;24.45;40.35
8366;BME280;4220;42.502;24.188;2023-07-29T06:52:22;95194.03;;;24.47;39.39
8366;BME280;4220;42.502;24.188;2023-07-29T06:54:48;95195.13;;;24.60;39.13
8366;BME280;4220;42.502;24.188;2023-07-29T06:57:15;95195.88;;;24.74;38.93
8366;BME280;4220;42.502;24.188;2023-07-29T06:59:42;95202.25;;;24.92;37.97
8366;BME280;4220;42.502;24.188;2023-07-29T07:02:09;95161.91;;;24.77;36.58
8366;BME280;4220;42.502;24.188;2023-07-29T07:04:36;95201.59;;;25.08;36.08
8366;BME280;4220;42.502;24.188;2023-07-29T07:07:05;95193.19;;;25.18;36.02
8366;BME280;4220;42.502;24.188;2023-07-29T07:09:31;95201.06;;;25.28;36.48
8366;BME280;4220;42.502;24.188;2023-07-29T07:11:58;95198.22;;;25.33;36.42
8366;BME280;4220;42.502;24.188;2023-07-29T07:14:25;95196.75;;;25.50;36.42
8366;BME280;4220;42.502;24.188;2023-07-29T07:16:52;95197.25;;;25.60;36.34
8366;BME280;4220;42.502;24.188;2023-07-29T07:19:19;95187.38;;;25.64;35.84
8366;BME280;4220;42.502;24.188;2023-07-29T07:21:45;95185.69;;;25.77;35.71
8366;BME280;4220;42.502;24.188;2023-07-29T07:24:14;95188.59;;;25.89;35.72
8366;BME280;4220;42.502;24.188;2023-07-29T07:26:40;95180.28;;;25.94;36.10
8366;BME280;4220;42.502;24.188;2023-07-29T07:29:07;95166.56;;;25.99;36.00
8366;BME280;4220;42.502;24.188;2023-07-29T07:31:34;95183.75;;;26.17;35.87
8366;BME280;4220;42.502;24.188;2023-07-29T07:34:01;95169.19;;;26.21;35.31
8366;BME280;4220;42.502;24.188;2023-07-29T07:36:29;95176.06;;;26.27;35.74
8366;BME280;4220;42.502;24.188;2023-07-29T07:38:56;95180.09;;;26.38;35.88
8366;BME280;4220;42.502;24.188;2023-07-29T07:41:25;95166.50;;;26.38;35.79
8366;BME280;4220;42.502;24.188;2023-07-29T07:43:52;95182.50;;;26.48;35.05
8366;BME280;4220;42.502;24.188;2023-07-29T07:46:19;95178.50;;;26.54;34.98
8366;BME280;4220;42.502;24.188;2023-07-29T07:48:45;95177.88;;;26.57;35.24
8366;BME280;4220;42.502;24.188;2023-07-29T07:51:12;95173.06;;;26.54;34.81
8366;BME280;4220;42.502;24.188;2023-07-29T07:53:40;95175.94;;;26.58;34.80
8366;BME280;4220;42.502;24.188;2023-07-29T07:56:07;95178.50;;;26.72;34.50
8366;BME280;4220;42.502;24.188;2023-07-29T07:58:35;95174.38;;;26.83;34.48
8366;BME280;4220;42.502;24.188;2023-07-29T08:01:03;95172.09;;;26.93;34.35
8366;BME280;4220;42.502;24.188;2023-07-29T08:03:30;95170.31;;;27.06;34.07
8366;BME280;4220;42.502;24.188;2023-07-29T08:05:57;95170.03;;;27.07;33.86
8366;BME280;4220;42.502;24.188;2023-07-29T08:08:24;95169.84;;;27.04;34.00
8366;BME280;4220;42.502;24.188;2023-07-29T08:10:52;95166.34;;;26.86;34.06
8366;BME280;4220;42.502;24.188;2023-07-29T08:13:19;95154.47;;;26.74;34.67
8366;BME280;4220;42.502;24.188;2023-07-29T08:15:48;95153.22;;;26.63;35.08
8366;BME280;4220;42.502;24.188;2023-07-29T08:18:15;95160.09;;;26.60;34.99
8366;BME280;4220;42.502;24.188;2023-07-29T08:20:51;95145.22;;;26.57;35.58
8366;BME280;4220;42.502;24.188;2023-07-29T08:23:19;95154.00;;;26.72;35.40
8366;BME280;4220;42.502;24.188;2023-07-29T08:25:51;95154.81;;;26.98;35.57
8366;BME280;4220;42.502;24.188;2023-07-29T08:28:18;95162.91;;;27.32;35.82
8366;BME280;4220;42.502;24.188;2023-07-29T08:30:45;95142.84;;;27.45;35.34
8366;BME280;4220;42.502;24.188;2023-07-29T08:33:14;95160.41;;;27.73;34.74
8366;BME280;4220;42.502;24.188;2023-07-29T08:35:41;95167.34;;;27.92;34.48
8366;BME280;4220;42.502;24.188;2023-07-29T08:38:08;95161.81;;;28.09;34.34
8366;BME280;4220;42.502;24.188;2023-07-29T08:40:35;95155.88;;;28.15;33.96
8366;BME280;4220;42.502;24.188;2023-07-29T08:43:04;95159.25;;;28.12;33.90
8366;BME280;4220;42.502;24.188;2023-07-29T08:45:34;95153.94;;;28.16;34.23
8366;BME280;4220;42.502;24.188;2023-07-29T08:48:02;95141.66;;;28.30;33.79
8366;BME280;4220;42.502;24.188;2023-07-29T08:50:35;95147.72;;;28.57;33.46
8366;BME280;4220;42.502;24.188;2023-07-29T08:53:04;95119.97;;;28.55;33.18
8366;BME280;4220;42.502;24.188;2023-07-29T08:55:32;95141.47;;;28.77;32.87
8366;BME280;4220;42.502;24.188;2023-07-29T08:57:59;95139.66;;;28.81;32.73
8366;BME280;4220;42.502;24.188;2023-07-29T09:00:27;95132.59;;;28.80;32.76
8366;BME280;4220;42.502;24.188;2023-07-29T09:02:54;95138.19;;;28.83;33.32
8366;BME280;4220;42.502;24.188;2023-07-29T09:05:26;95131.56;;;28.72;33.22
8366;BME280;4220;42.502;24.188;2023-07-29T09:07:55;95137.28;;;28.79;33.14
8366;BME280;4220;42.502;24.188;2023-07-29T09:10:24;95137.91;;;28.97;32.48
8366;BME280;4220;42.502;24.188;2023-07-29T09:12:52;95097.72;;;28.97;32.36
8366;BME280;4220;42.502;24.188;2023-07-29T09:15:29;95132.44;;;29.30;32.05
8366;BME280;4220;42.502;24.188;2023-07-29T09:17:57;95121.63;;;29.00;32.69
8366;BME280;4220;42.502;24.188;2023-07-29T09:20:24;95126.94;;;29.17;32.31
8366;BME280;4220;42.502;24.188;2023-07-29T09:22:54;95126.09;;;29.38;32.42
8366;BME280;4220;42.502;24.188;2023-07-29T09:25:25;95091.47;;;29.42;32.15
8366;BME280;4220;42.502;24.188;2023-07-29T09:27:52;95117.84;;;29.83;32.13
8366;BME280;4220;42.502;24.188;2023-07-29T09:30:20;95124.13;;;29.95;31.49
8366;BME280;4220;42.502;24.188;2023-07-29T09:32:47;95122.16;;;29.96;31.21
8366;BME280;4220;42.502;24.188;2023-07-29T09:35:14;95103.13;;;29.63;30.95
8366;BME280;4220;42.502;24.188;2023-07-29T09:37:41;95119.97;;;29.65;31.38
8366;BME280;4220;42.502;24.188;2023-07-29T09:40:14;95090.44;;;29.46;31.12
8366;BME280;4220;42.502;24.188;2023-07-29T09:42:48;95117.63;;;29.88;31.00
8366;BME280;4220;42.502;24.188;2023-07-29T09:45:20;95114.50;;;30.13;31.07
8366;BME280;4220;42.502;24.188;2023-07-29T09:47:47;95096.25;;;30.17;30.65
8366;BME280;4220;42.502;24.188;2023-07-29T09:50:15;95121.25;;;29.92;30.41
8366;BME280;4220;42.502;24.188;2023-07-29T09:52:42;95108.09;;;29.37;31.01
8366;BME280;4220;42.502;24.188;2023-07-29T09:55:10;95104.09;;;29.34;31.55
8366;BME280;4220;42.502;24.188;2023-07-29T09:57:39;95090.56;;;29.38;31.62
8366;BME280;4220;42.502;24.188;2023-07-29T10:00:07;95097.06;;;29.33;31.50
8366;BME280;4220;42.502;24.188;2023-07-29T10:02:37;95098.78;;;29.50;31.24
8366;BME280;4220;42.502;24.188;2023-07-29T10:05:06;95103.00;;;29.71;30.77
8366;BME280;4220;42.502;24.188;2023-07-29T10:07:34;95105.16;;;29.66;31.01
8366;BME280;4220;42.502;24.188;2023-07-29T10:10:04;95104.13;;;29.46;31.05
8366;BME280;4220;42.502;24.188;2023-07-29T10:12:32;95089.91;;;29.53;31.42
8366;BME280;4220;42.502;24.188;2023-07-29T10:15:02;95096.66;;;29.80;31.25
8366;BME280;4220;42.502;24.188;2023-07-29T10:17:29;95090.13;;;30.08;30.92
8366;BME280;4220;42.502;24.188;2023-07-29T10:19:57;95080.41;;;30.23;30.54
8366;BME280;4220;42.502;24.188;2023-07-29T10:22:25;95091.25;;;30.19;30.15
8366;BME280;4220;42.502;24.188;2023-07-29T10:24:57;95087.75;;;30.07;30.25
8366;BME280;4220;42.502;24.188;2023-07-29T10:27:26;95089.66;;;30.18;30.44
8366;BME280;4220;42.502;24.188;2023-07-29T10:29:55;95050.78;;;30.13;30.18
8366;BME280;4220;42.502;24.188;2023-07-29T10:32:25;95074.97;;;30.63;29.72
8366;BME280;4220;42.502;24.188;2023-07-29T10:34:53;95078.00;;;31.01;29.16
8366;BME280;4220;42.502;24.188;2023-07-29T10:37:20;95070.44;;;31.41;28.66
8366;BME280;4220;42.502;24.188;2023-07-29T10:39:53;95023.44;;;31.55;28.08
8366;BME280;4220;42.502;24.188;2023-07-29T10:42:20;95062.81;;;32.32;27.42
8366;BME280;4220;42.502;24.188;2023-07-29T10:44:52;95070.16;;;32.82;26.93
8366;BME280;4220;42.502;24.188;2023-07-29T10:47:21;95073.75;;;33.24;26.83
8366;BME280;4220;42.502;24.188;2023-07-29T10:49:52;95068.41;;;33.54;26.22
8366;BME280;4220;42.502;24.188;2023-07-29T10:52:40;95065.47;;;33.92;25.24
8366;BME280;4220;42.502;24.188;2023-07-29T10:55:27;95058.84;;;34.23;25.17
8366;BME280;4220;42.502;24.188;2023-07-29T10:58:08;95048.97;;;34.48;24.81
8366;BME280;4220;42.502;24.188;2023-07-29T11:00:35;95051.00;;;34.81;24.50
8366;BME280;4220;42.502;24.188;2023-07-29T11:03:04;95042.34;;;34.82;24.75
8366;BME280;4220;42.502;24.188;2023-07-29T11:05:48;95041.88;;;35.10;24.33
8366;BME280;4220;42.502;24.188;2023-07-29T11:08:17;95041.22;;;35.24;24.23
8366;BME280;4220;42.502;24.188;2023-07-29T11:10:44;95023.16;;;34.93;24.26
8366;BME280;4220;42.502;24.188;2023-07-29T11:13:26;95040.00;;;35.21;23.99
8366;BME280;4220;42.502;24.188;2023-07-29T11:15:53;95042.44;;;35.26;23.59
8366;BME280;4220;42.502;24.188;2023-07-29T11:18:22;95021.78;;;35.06;23.57
8366;BME280;4220;42.502;24.188;2023-07-29T11:20:50;94989.75;;;34.98;23.83
8366;BME280;4220;42.502;24.188;2023-07-29T11:23:17;95027.63;;;35.45;23.43
8366;BME280;4220;42.502;24.188;2023-07-29T11:25:45;95024.16;;;35.52;23.10
8366;BME280;4220;42.502;24.188;2023-07-29T11:28:11;95026.81;;;35.85;23.13
8366;BME280;4220;42.502;24.188;2023-07-29T11:30:39;94995.22;;;35.79;23.06
8366;BME280;4220;42.502;24.188;2023-07-29T11:33:05;95023.44;;;36.13;22.89
8366;BME280;4220;42.502;24.188;2023-07-29T11:35:32;95005.63;;;36.03;22.73
8366;BME280;4220;42.502;24.188;2023-07-29T11:38:01;94999.78;;;36.15;22.63
8366;BME280;4220;42.502;24.188;2023-07-29T11:40:28;95014.47;;;36.26;22.32
8366;BME280;4220;42.502;24.188;2023-07-29T11:42:55;95001.03;;;36.21;22.82
8366;BME280;4220;42.502;24.188;2023-07-29T11:45:22;95004.34;;;36.51;22.52
8366;BME280;4220;42.502;24.188;2023-07-29T11:47:49;94990.97;;;36.67;22.31
8366;BME280;4220;42.502;24.188;2023-07-29T11:50:16;95003.56;;;36.61;22.46
8366;BME280;4220;42.502;24.188;2023-07-29T11:52:44;94987.81;;;36.65;22.17
8366;BME280;4220;42.502;24.188;2023-07-29T11:55:14;94998.50;;;36.70;22.28
8366;BME280;4220;42.502;24.188;2023-07-29T11:57:42;94989.75;;;36.61;22.20
8366;BME280;4220;42.502;24.188;2023-07-29T12:00:11;94912.50;;;35.96;22.27
8366;BME280;4220;42.502;24.188;2023-07-29T12:02:41;94995.38;;;36.00;22.10
8366;BME280;4220;42.502;24.188;2023-07-29T12:05:10;94990.44;;;35.72;22.37
8366;BME280;4220;42.502;24.188;2023-07-29T12:07:38;94991.75;;;35.41;22.79
8366;BME280;4220;42.502;24.188;2023-07-29T12:10:06;94993.53;;;35.20;23.02
8366;BME280;4220;42.502;24.188;2023-07-29T12:12:38;94982.38;;;34.69;23.48
8366;BME280;4220;42.502;24.188;2023-07-29T12:15:08;94987.53;;;34.74;23.43
8366;BME280;4220;42.502;24.188;2023-07-29T12:17:39;94985.31;;;35.23;23.26
8366;BME280;4220;42.502;24.188;2023-07-29T12:20:08;94988.53;;;35.83;23.03
8366;BME280;4220;42.502;24.188;2023-07-29T12:22:35;94973.38;;;36.14;22.59
8366;BME280;4220;42.502;24.188;2023-07-29T12:25:03;94983.03;;;36.59;22.60
8366;BME280;4220;42.502;24.188;2023-07-29T12:27:30;94978.69;;;35.86;22.73
8366;BME280;4220;42.502;24.188;2023-07-29T12:30:01;94978.25;;;35.29;23.47
8366;BME280;4220;42.502;24.188;2023-07-29T12:32:29;94948.25;;;35.21;23.27
8366;BME280;4220;42.502;24.188;2023-07-29T12:34:56;94964.19;;;35.45;23.17
8366;BME280;4220;42.502;24.188;2023-07-29T12:37:31;94964.38;;;35.66;22.91
8366;BME280;4220;42.502;24.188;2023-07-29T12:39:58;94962.88;;;35.83;23.14
8366;BME280;4220;42.502;24.188;2023-07-29T12:42:25;94941.16;;;35.78;22.93
8366;BME280;4220;42.502;24.188;2023-07-29T12:44:52;94959.94;;;36.09;22.56
8366;BME280;4220;42.502;24.188;2023-07-29T12:47:20;94959.63;;;36.28;22.68
8366;BME280;4220;42.502;24.188;2023-07-29T12:49:47;94968.84;;;36.64;22.26
8366;BME280;4220;42.502;24.188;2023-07-29T12:52:14;94895.31;;;36.35;21.83
8366;BME280;4220;42.502;24.188;2023-07-29T12:54:41;94965.41;;;36.99;22.03
8366;BME280;4220;42.502;24.188;2023-07-29T12:57:09;94961.47;;;37.21;21.57
8366;BME280;4220;42.502;24.188;2023-07-29T12:59:36;94957.53;;;37.57;21.18
8366;BME280;4220;42.502;24.188;2023-07-29T13:02:03;94943.72;;;37.50;20.99
8366;BME280;4220;42.502;24.188;2023-07-29T13:04:31;94967.81;;;37.95;20.90
8366;BME280;4220;42.502;24.188;2023-07-29T13:06:58;94954.75;;;38.03;21.21
8366;BME280;4220;42.502;24.188;2023-07-29T13:09:26;94964.66;;;37.72;21.03
8366;BME280;4220;42.502;24.188;2023-07-29T13:11:53;94962.25;;;37.99;21.33
8366;BME280;4220;42.502;24.188;2023-07-29T13:14:19;94881.94;;;38.06;20.92